Terminal Aerodrome Forecast
Issued by NWS Charleston, WV

Home | Current Version | Previous Version | Text Only | Print | Product List | Glossary On
Versions: 1 2 3 4 5 6 7 8 9 10 11 12 13 14 15 16 17 18 19 20 21
000
FTUS41 KRLX 291100
TAFCRW
TAF
KCRW 291127Z 2912/3012 00000KT 6SM BR SCT008 OVC020
     FM291400 VRB03KT P6SM OVC035
     FM300000 36004KT P6SM OVC100=

USA.gov is the U.S. government's official web portal to all federal, state and local government web resources and services.